메인 페이지
METAR-TAF:

METAR-TAF

공항 :

더블린 공항

더블린, 아일랜드

위도: 53-26N, 경도: 006-15W, 고도: 68m

현재 날씨관측

예보는 40분 전, 03:30시(UTC)에 발표되었습니다.
북서5kt
온도 12°C
습도 94%
기압 1017 hPa
시정 10km 이상
고도 1200ft 상공 구름 조금
고도 1800ft 상공 구름 보통
고도 4000ft 상공 구름 많음

METAR: EIDW 130330Z 31005KT 9999 FEW012 SCT018 BKN040 12/11 Q1017 NOSIG

시각: 05:10 (04:10 UTC)

예보

예보는 5 시간 10분 전, 23:00시(UTC)에 발표되었습니다.
예보 대상 시간: 13일 00시부터 13일 24시까지 (UTC)
북북서6kt
시정 10km 이상
고도 1500ft 상공 구름 조금
고도 3500ft 상공 구름 많음
일시적
13일 00시부터 13일 09시까지 (UTC)
여러 방향의 바람 3kt
고도 1200ft 상공 구름 많음
확률 30% :
일시적
13일 02시부터 13일 07시까지 (UTC)
고도 800ft 상공 구름 많음
약한이슬비
전환 중
13일 14시부터 13일 16시까지 (UTC)
6kt
확률 30% :
일시적
13일 15시부터 13일 18시까지 (UTC)
고도 1400ft 상공 구름 많음
약한소나기
일시적
13일 16시부터 13일 24시까지 (UTC)
여러 방향의 바람 3kt

TAF: EIDW 122300Z 1300/1324 33006KT 9999 FEW015 BKN035 TEMPO 1300/1309 VRB03KT BKN012 PROB30 TEMPO 1302/1307 -DZ BKN008 BECMG 1314/1316 08006KT PROB30 TEMPO 1315/1318 -SHRA BKN014 TEMPO 1316/1324 VRB03KT

4,000개 이상의 공항 관측 자료 및 예보 (METAR 및 TAF 보고).

지도상에서 검색 가능한 기상관측소가 노란 점과 빨간 점으로 표시되어 있습니다.

기상관측소 명을 보려면 표시 위로 마우스를 이동하세요.

날씨 관측과 예보를 보려면 클릭하세요.

지도 변경 : 확대하려면 엑스 표시가 있는 녹색 버튼, 축소하려면 빼기 표시가 있는 녹색 버튼, 다음 페이지의 지도를 보려면 녹색 화살표를 클릭하세요.


METAR-TAF: